Flight Track Log - Related Links

Times and Time Zones

All times are in EDT time to prevent confusion due to time zone crossing. See the SKW5550 flight status page for this flight to view local times or setup timezone preferences in your user account.

Time Position Orientation Groundspeed Altitude Reporting Facility
EDT Latitude Longitude Course Direction KTS MPH feet Rate Location/Type
05:06PM 39.8419 -104.7458 300° West 198 228 6,000  Level Salt Lake Center
05:07PM 39.8822 -104.8367 300° West 236 272 8,800 2,429 Climbing Denver Center
05:08PM 39.9014 -104.9342 284° West 262 302 11,100 2,177 Climbing Denver Center
05:09PM 39.9189 -105.0336 283° West 279 321 13,300 1,742 Climbing Denver Center
05:10PM 39.9367 -105.1400 282° West 300 345 14,700 1,452 Climbing Denver Center
05:11PM 39.9581 -105.2686 282° West 333 383 16,300 1,452 Climbing Denver Center
05:12PM 39.9806 -105.3897 284° West 343 395 17,700 1,355 Climbing Denver Center
05:13PM 40.0064 -105.5242 284° West 355 409 19,100 1,306 Climbing Denver Center
05:14PM 40.0278 -105.6525 282° West 366 421 20,400 1,210 Climbing Denver Center
05:15PM 40.0231 -105.7967 268° West 372 428 21,600 1,065 Climbing Denver Center
05:16PM 40.0231 -105.9278 270° West 367 422 22,600 816 Climbing Denver Center
05:17PM 40.0272 -106.0667 272° West 380 437 23,300 816 Climbing Denver Center
05:18PM 40.0311 -106.2081 272° West 390 449 24,300 823 Climbing Denver Center
05:20PM 40.0325 -106.3506 271° West 394 453 25,000 774 Climbing Denver Center
05:21PM 40.0422 -106.5211 274° West 397 457 25,900 726 Climbing Denver Center
05:22PM 40.0450 -106.6503 272° West 401 461 26,500 629 Climbing Denver Center
05:23PM 40.0486 -106.7947 272° West 400 460 27,200 677 Climbing Denver Center
05:24PM 40.0517 -106.9694 271° West 402 463 27,900 581 Climbing Denver Center
05:25PM 40.0550 -107.1161 272° West 404 465 28,400 435 Climbing Denver Center
05:26PM 40.0583 -107.2692 272° West 408 470 28,800 435 Climbing Denver Center
05:27PM 40.0597 -107.4356 271° West 410 472 29,300 484 Climbing Denver Center
05:28PM 40.0625 -107.5800 271° West 413 475 29,800 532 Climbing Denver Center
05:29PM 40.0644 -107.7217 271° West 411 473 30,400 629 Climbing Denver Center
05:30PM 40.0664 -107.8847 271° West 406 467 31,100 629 Climbing Denver Center
05:31PM 40.0861 -108.0144 281° West 389 448 31,700 435 Climbing Denver Center
05:32PM 40.1175 -108.1636 285° West 379 436 32,000 145 Climbing Denver Center
05:33PM 40.1447 -108.2936 285° West 384 442 32,000  Level Denver Center
05:34PM 40.1775 -108.4486 286° West 392 451 32,000  Level Denver Center
05:35PM 40.2056 -108.5844 285° West 403 464 32,000  Level Salt Lake Center
05:36PM 40.2339 -108.7214 285° West 405 466 32,000  Level Salt Lake Center
05:37PM 40.2669 -108.8828 285° West 409 471 32,000  Level Salt Lake Center
05:38PM 40.2953 -109.0231 285° West 413 475 32,000  Level Salt Lake Center
05:39PM 40.3261 -109.1764 285° West 411 473 32,000  Level Salt Lake Center
05:40PM 40.3539 -109.3189 284° West 406 467 32,000  Level Salt Lake Center
05:41PM 40.3831 -109.4592 285° West 402 463 32,000  Level Salt Lake Center
05:42PM 40.4103 -109.6000 284° West 400 460 32,000  Level Salt Lake Center
05:43PM 40.4431 -109.7658 285° West 395 455 32,000  Level Salt Lake Center
05:44PM 40.4700 -109.9036 284° West 391 450 32,000  Level Salt Lake Center
05:45PM 40.4964 -110.0428 284° West 392 451 32,000  Level Salt Lake Center
05:46PM 40.5233 -110.1819 284° West 393 452 32,000  Level Salt Lake Center
05:47PM 40.5492 -110.3208 284° West 392 451 32,000  Level Salt Lake Center
05:48PM 40.5758 -110.4589 284° West 392 451 32,000  Level Salt Lake Center
05:49PM 40.6075 -110.6281 284° West 395 455 32,000  Level Salt Lake Center
05:50PM 40.6339 -110.7700 284° West 399 459 32,000  Level Salt Lake Center
05:51PM 40.6600 -110.9133 284° West 403 464 32,000  Level Salt Lake Center
05:53PM 40.6867 -111.0564 284° West 403 464 32,000  Level Salt Lake Center
05:54PM 40.7122 -111.1989 283° West 401 461 32,000  Level Salt Lake Center
05:55PM 40.7389 -111.3425 284° West 403 464 32,000  Level Salt Lake Center
05:56PM 40.7647 -111.4869 283° West 406 467 32,000  Level Salt Lake Center
05:57PM 40.7947 -111.6581 283° West 397 457 32,000  Level Salt Lake Center
05:58PM 40.8200 -111.8022 283° West 399 459 32,000  Level Salt Lake Center
05:59PM 40.8464 -111.9467 284° West 397 457 32,000  Level Salt Lake Center
06:00PM 40.8428 -112.0967 268° West 409 471 32,000  Level Salt Lake Center
06:01PM 40.8344 -112.2428 266° West 396 456 32,000  Level Salt Lake Center
06:02PM 40.8244 -112.3908 265° West 403 464 32,000  Level Salt Lake Center
06:03PM 40.8150 -112.5375 265° West 400 460 32,000  Level Salt Lake Center
06:04PM 40.8039 -112.7122 265° West 399 459 32,000  Level Salt Lake Center
06:05PM 40.7936 -112.8575 265° West 395 455 32,000  Level Salt Lake Center
06:06PM 40.7831 -113.0031 265° West 397 457 32,000  Level Salt Lake Center
06:07PM 40.7731 -113.1497 265° West 399 459 32,000  Level Salt Lake Center
06:08PM 40.7628 -113.2953 265° West 398 458 32,000  Level Salt Lake Center
06:09PM 40.7514 -113.4392 264° West 397 457 32,000  Level Salt Lake Center
06:10PM 40.7397 -113.5833 264° West 396 456 32,000  Level Salt Lake Center
06:11PM 40.7267 -113.7567 264° West 396 456 32,000  Level Salt Lake Center
06:12PM 40.7203 -113.9008 267° West 395 455 32,000  Level Salt Lake Center
06:13PM 40.7158 -114.0450 268° West 395 455 32,000  Level Salt Lake Center
06:14PM 40.7106 -114.1872 267° West 392 451 32,000  Level Salt Lake Center
06:15PM 40.7053 -114.3306 267° West 391 450 32,000  Level Salt Lake Center
06:16PM 40.6994 -114.4733 267° West 391 450 32,000  Level Salt Lake Center
06:17PM 40.6947 -114.6442 268° West 390 449 32,000  Level Salt Lake Center
06:18PM 40.6875 -114.7853 266° West 388 447 32,000  Level Salt Lake Center
06:19PM 40.6811 -114.9300 267° West 387 445 32,000  Level Salt Lake Center
06:20PM 40.6742 -115.0647 266° West 386 444 32,000  Level Salt Lake Center
06:21PM 40.6625 -115.2200 264° West 384 442 32,000  Level Salt Lake Center
06:22PM 40.6567 -115.3533 267° West 384 442 32,000  Level Salt Lake Center
06:24PM 40.6492 -115.5081 266° West 381 438 32,000  Level Salt Lake Center
06:25PM 40.6428 -115.6411 266° West 381 438 32,000  Level Salt Lake Center
06:26PM 40.6367 -115.7967 267° West 382 440 32,000  Level Salt Lake Center
06:27PM 40.6297 -115.9281 266° West 379 436 32,000  Level Salt Lake Center
06:28PM 40.6225 -116.0814 266° West 377 434 32,000  Level Salt Lake Center
06:29PM 40.6144 -116.2136 265° West 379 436 32,000  Level Salt Lake Center
06:30PM 40.6039 -116.3447 264° West 378 435 32,000  Level Salt Lake Center
06:31PM 40.5956 -116.4978 266° West 378 435 32,000  Level Salt Lake Center
06:32PM 40.5883 -116.6281 266° West 375 432 32,000  Level Salt Lake Center
06:33PM 40.5792 -116.7806 266° West 378 435 32,000  Level Salt Lake Center
06:34PM 40.5672 -116.9314 264° West 378 435 32,000  Level Salt Lake Center
06:35PM 40.5211 -117.0514 243° Southwest 390 449 32,000  Level Salt Lake Center
06:36PM 40.4694 -117.1925 244° Southwest 387 445 32,000  Level Salt Lake Center
06:37PM 40.4253 -117.3144 245° Southwest 388 447 32,000  Level Salt Lake Center
06:38PM 40.3739 -117.4569 245° Southwest 388 447 32,000  Level Salt Lake Center
06:39PM 40.3269 -117.5781 243° Southwest 390 449 32,000  Level Salt Lake Center
06:40PM 40.2828 -117.7011 245° Southwest 390 449 32,000  Level Salt Lake Center
06:41PM 40.2297 -117.8425 244° Southwest 389 448 32,000  Level Salt Lake Center
06:42PM 40.2017 -117.9172 244° Southwest 396 456 32,000  Level Oakland Center
06:43PM 40.1550 -118.0447 244° Southwest 392 451 32,000  Level Oakland Center
06:44PM 40.1069 -118.1722 244° Southwest 391 450 32,000  Level Oakland Center
06:45PM 40.0586 -118.3014 244° Southwest 395 455 32,000  Level Oakland Center
06:46PM 40.0086 -118.4297 243° Southwest 398 458 32,000  Level Oakland Center
06:47PM 39.9500 -118.5850 244° Southwest 398 458 32,000  Level Oakland Center
06:48PM 39.9000 -118.7144 243° Southwest 402 463 32,000  Level Oakland Center
06:49PM 39.8492 -118.8436 243° Southwest 403 464 32,000  Level Oakland Center
06:50PM 39.7997 -118.9739 244° Southwest 405 466 32,000  Level Oakland Center
06:51PM 39.7714 -119.1106 255° West 396 456 32,000 -197 Level Oakland Center
06:52PM 39.7522 -119.2528 260° West 400 460 31,600 -780 Descending Oakland Center
06:53PM 39.7203 -119.3925 253° West 407 468 30,400 -1,463 Descending Oakland Center
06:54PM 39.6572 -119.5506 243° Southwest 414 476 28,600 -1,610 Descending Oakland Center
06:55PM 39.6025 -119.6797 241° Southwest 411 473 27,100 -1,463 Descending Oakland Center
06:56PM 39.5483 -119.8128 242° Southwest 416 479 25,600 -1,475 Descending Oakland Center
06:57PM 39.4942 -119.9461 242° Southwest 419 482 24,100 -1,463 Descending Oakland Center
06:58PM 39.4378 -120.0819 242° Southwest 426 490 22,600 -1,512 Descending Oakland Center
06:59PM 39.3842 -120.2172 243° Southwest 414 476 21,000 -1,463 Descending Oakland Center
07:00PM 39.3297 -120.3492 242° Southwest 416 479 19,600 -1,463 Descending Oakland Center
07:01PM 39.2744 -120.4778 241° Southwest 412 474 18,000 -1,475 Descending Oakland Center
07:02PM 39.2217 -120.6069 242° Southwest 409 471 16,600 -1,415 Descending Oakland Center
07:03PM 39.1697 -120.7297 241° Southwest 395 455 15,100 -1,610 Descending Oakland Center
07:04PM 39.1072 -120.8789 242° Southwest 395 455 13,300 -1,623 Descending Oakland Center
07:05PM 39.0583 -120.9950 242° Southwest 377 434 11,800 -1,415 Descending Oakland Center
07:06PM 39.0167 -121.0933 241° Southwest 322 371 10,400 -1,623 Descending Oakland Center
07:07PM 38.9833 -121.1833 245° Southwest 286 329 8,500 -1,965 Descending Northern Cal TRACON
07:08PM 38.9500 -121.2667 243° Southwest 280 322 6,700 -1,722 Descending Northern Cal TRACON
07:09PM 38.9167 -121.3333 237° Southwest 261 300 5,400 -1,304 Descending Northern Cal TRACON
07:10PM 38.8833 -121.4167 243° Southwest 235 270 4,200 -1,050 Descending Northern Cal TRACON
07:11PM 38.8500 -121.4833 237° Southwest 210 242 3,300 -952 Descending Northern Cal TRACON
07:12PM 38.8167 -121.5500 237° Southwest 172 198 2,200 -905 Descending Northern Cal TRACON
07:13PM 38.7833 -121.5833 218° Southwest 164 189 1,400 -750 Descending Northern Cal TRACON
07:14PM 38.7333 -121.5833 180° South 140 161 700 -700 Descending Northern Cal TRACON
07:17PM 38.6954 -121.5908 218° Southwest  Level Estimated

Login

Don't have an account? Register now (free) for customized features, flight alerts, and more!